Agua Linda, Arizona
Current Conditions -  °F | °C
As of 4:54 AM on Friday 19 Dec 2014 (Local Time) from KOLS Reporting Station
Moderate Fog Moderate Fog  
Wind Chill: 36°   Ceiling: 200
Heat Index: 36°   Visibility: 0.25mi
Dew Point: 35°   Wind: 3mph
Humidity: 97%   Direction: 170°S
Pressure: 30.16"   Gusts: NA
Location:  31.6134°N, 110.959°W
Report Text: KOLS 191154Z AUTO 17003KT 1/4SM FG VV002 02/02 A3016 RMK AO2 SLP196 70012 T00220017 10033 20006 55001
Loading
Personal Weather Stations






























Interactive Weather Map New forecast layout! Learn more

10-Day Weather Forecast

Advertisements
Track Severe Weather on mobile